Time;durP1;ratioP1;P1;durP2;ratioP2;P2;SDS_P1;SDS_P2;PMS_P1;PMS_P2;Temp;Humidity;BMP_temperature;BMP_pressure;BME280_temperature;BME280_humidity;BME280_pressure;Samples;Min_cycle;Max_cycle;Signal;HPM_P1;HPM_P2
2022/04/30 00:00:17;;;;;;;12.15;4.63;;;;;;;;;;4915546;29;20068;-66
2022/04/30 00:02:47;;;;;;;8.00;3.53;;;;;;;;;;4915208;29;20055;-65
2022/04/30 00:05:18;;;;;;;8.80;3.25;;;;;;;;;;4950066;28;20047;-65
2022/04/30 00:07:49;;;;;;;11.05;3.60;;;;;;;;;;4956582;28;20054;-65
2022/04/30 00:10:20;;;;;;;5.07;2.92;;;;;;;;;;4972868;28;20055;-65
2022/04/30 00:12:52;;;;;;;7.82;3.38;;;;;;;;;;4972881;28;20118;-65
2022/04/30 00:15:22;;;;;;;7.50;3.50;;;;;;;;;;4973009;28;20043;-65
2022/04/30 00:17:53;;;;;;;5.53;3.03;;;;;;;;;;4983178;28;20051;-65
2022/04/30 00:20:25;;;;;;;6.57;3.10;;;;;;;;;;4959948;28;20058;-65
2022/04/30 00:22:56;;;;;;;8.60;3.55;;;;;;;;;;4938547;28;20057;-65
2022/04/30 00:25:27;;;;;;;5.45;3.13;;;;;;;;;;5011778;28;20061;-65
2022/04/30 00:27:58;;;;;;;5.45;2.72;;;;;;;;;;5011339;28;20049;-65
2022/04/30 00:30:28;;;;;;;6.88;2.72;;;;;;;;;;5021894;28;20049;-66
2022/04/30 00:33:00;;;;;;;5.97;2.60;;;;;;;;;;4982427;28;20064;-65
2022/04/30 00:35:30;;;;;;;8.10;2.80;;;;;;;;;;5031634;28;20409;-66
2022/04/30 00:38:02;;;;;;;4.40;2.30;;;;;;;;;;5031246;28;20049;-65
2022/04/30 00:40:33;;;;;;;4.68;2.63;;;;;;;;;;5031517;28;20049;-65
2022/04/30 00:43:04;;;;;;;7.97;2.72;;;;;;;;;;5041907;28;20083;-65
2022/04/30 00:45:34;;;;;;;6.47;2.78;;;;;;;;;;5030918;28;20049;-65
2022/04/30 00:48:07;;;;;;;8.70;2.78;;;;;;;;;;4998066;28;20056;-65
2022/04/30 00:50:38;;;;;;;5.57;2.70;;;;;;;;;;5030596;28;20049;-65
2022/04/30 00:53:11;;;;;;;7.25;2.53;;;;;;;;;;4991444;28;20062;-65
2022/04/30 00:55:45;;;;;;;8.13;2.85;;;;;;;;;;4959274;28;20069;-65
2022/04/30 00:58:18;;;;;;;5.22;2.55;;;;;;;;;;4991234;28;20055;-65
2022/04/30 01:00:51;;;;;;;6.75;2.70;;;;;;;;;;4991450;28;20046;-66
2022/04/30 01:03:32;;;;;;;5.93;3.00;;;;;;;;;;4933184;29;20496;-66
2022/04/30 01:06:08;;;;;;;5.30;2.42;;;;;;;;;;4918113;29;20055;-66
2022/04/30 01:08:40;;;;;;;5.38;2.78;;;;;;;;;;4931312;29;20074;-65
2022/04/30 01:11:11;;;;;;;4.82;3.05;;;;;;;;;;4936951;29;20067;-65
2022/04/30 01:13:43;;;;;;;7.40;2.40;;;;;;;;;;4920542;29;20059;-66
2022/04/30 01:16:15;;;;;;;5.35;2.63;;;;;;;;;;4958575;28;20518;-65
2022/04/30 01:18:46;;;;;;;5.68;2.58;;;;;;;;;;4970962;28;20043;-65
2022/04/30 01:21:22;;;;;;;8.25;2.70;;;;;;;;;;4971778;28;20069;-65
2022/04/30 01:23:53;;;;;;;5.90;2.65;;;;;;;;;;4990495;28;20055;-66
2022/04/30 01:26:24;;;;;;;6.05;2.95;;;;;;;;;;4990870;28;20058;-65
2022/04/30 01:28:55;;;;;;;5.63;2.67;;;;;;;;;;4990562;28;20414;-65
2022/04/30 01:40:10;;;;;;;6.25;2.80;;;;;;;;;;5029912;28;20493;-65
2022/04/30 01:42:47;;;;;;;6.20;2.72;;;;;;;;;;5069852;28;20500;-66
2022/04/30 01:45:18;;;;;;;7.22;3.15;;;;;;;;;;5069760;28;20055;-66
2022/04/30 01:47:50;;;;;;;10.40;3.17;;;;;;;;;;5013116;28;20049;-66
2022/04/30 01:50:21;;;;;;;8.55;3.47;;;;;;;;;;4990192;28;20073;-65
2022/04/30 01:52:52;;;;;;;8.98;3.55;;;;;;;;;;4942366;28;20058;-66
2022/04/30 01:55:23;;;;;;;5.30;2.97;;;;;;;;;;4974671;28;20065;-65
2022/04/30 01:58:01;;;;;;;6.18;2.65;;;;;;;;;;4974179;28;20507;-65
2022/04/30 02:00:32;;;;;;;7.68;2.70;;;;;;;;;;4989978;28;20045;-65
2022/04/30 02:03:08;;;;;;;6.88;2.50;;;;;;;;;;4972085;28;20055;-65
2022/04/30 02:05:41;;;;;;;6.57;2.70;;;;;;;;;;4971016;28;20055;-65
2022/04/30 02:08:14;;;;;;;8.52;2.92;;;;;;;;;;4923062;28;20415;-65
2022/04/30 02:10:48;;;;;;;5.57;2.70;;;;;;;;;;4970834;28;20046;-67
2022/04/30 02:13:23;;;;;;;6.07;2.78;;;;;;;;;;4923160;28;20070;-65
2022/04/30 02:15:56;;;;;;;7.13;3.17;;;;;;;;;;4971006;28;20082;-65
2022/04/30 02:18:27;;;;;;;8.52;3.10;;;;;;;;;;4981633;28;20054;-65
2022/04/30 02:20:59;;;;;;;9.10;3.05;;;;;;;;;;4990022;28;20058;-65
2022/04/30 02:23:30;;;;;;;8.18;3.70;;;;;;;;;;4990147;28;20612;-65
2022/04/30 02:26:04;;;;;;;11.30;4.22;;;;;;;;;;4990272;28;20599;-65
2022/04/30 02:28:36;;;;;;;11.77;4.50;;;;;;;;;;5005478;28;20058;-66
2022/04/30 02:31:07;;;;;;;8.52;3.90;;;;;;;;;;4989724;28;20561;-65
2022/04/30 02:33:40;;;;;;;5.82;2.97;;;;;;;;;;4990246;28;20058;-65
2022/04/30 02:36:15;;;;;;;7.43;2.95;;;;;;;;;;4974563;28;20058;-65
2022/04/30 02:38:45;;;;;;;8.63;3.72;;;;;;;;;;5009413;28;20046;-65
2022/04/30 02:41:21;;;;;;;6.70;3.47;;;;;;;;;;4961208;28;20065;-64
2022/04/30 02:43:52;;;;;;;9.25;3.63;;;;;;;;;;5009940;28;20058;-65
2022/04/30 02:46:23;;;;;;;7.43;3.22;;;;;;;;;;5009391;28;20528;-65
2022/04/30 02:48:54;;;;;;;8.15;4.10;;;;;;;;;;5005713;28;20450;-65
2022/04/30 02:51:24;;;;;;;9.05;4.13;;;;;;;;;;4989798;28;20418;-65
2022/04/30 02:53:55;;;;;;;8.63;4.20;;;;;;;;;;4990056;28;20050;-65
2022/04/30 02:56:27;;;;;;;9.35;3.95;;;;;;;;;;4989752;28;20499;-65
2022/04/30 03:01:48;;;;;;;11.90;3.83;;;;;;;;;;5009286;28;20054;-64
2022/04/30 03:04:33;;;;;;;10.50;4.28;;;;;;;;;;4941801;28;20054;-66
2022/04/30 03:07:04;;;;;;;8.30;3.40;;;;;;;;;;4922946;28;20074;-65
2022/04/30 03:09:34;;;;;;;9.60;3.80;;;;;;;;;;4969938;28;20057;-65
2022/04/30 03:12:08;;;;;;;8.55;3.80;;;;;;;;;;4970492;28;20065;-68
2022/04/30 03:14:38;;;;;;;9.35;3.78;;;;;;;;;;4974140;28;20466;-65
2022/04/30 03:22:48;;;;;;;8.02;3.78;;;;;;;;;;4961213;28;20459;-65
2022/04/30 03:25:19;;;;;;;7.95;4.20;;;;;;;;;;4993674;28;20058;-66
2022/04/30 03:27:55;;;;;;;7.82;3.92;;;;;;;;;;4993435;28;20406;-65
2022/04/30 03:30:25;;;;;;;10.65;4.28;;;;;;;;;;4977398;28;20065;-65
2022/04/30 03:32:56;;;;;;;8.50;4.18;;;;;;;;;;4977382;28;20050;-65
2022/04/30 03:35:28;;;;;;;9.57;4.55;;;;;;;;;;4952466;28;20060;-65
2022/04/30 03:37:59;;;;;;;10.55;4.82;;;;;;;;;;5012923;28;20565;-65
2022/04/30 03:40:29;;;;;;;10.63;4.65;;;;;;;;;;5012643;28;20054;-65
2022/04/30 03:43:01;;;;;;;11.43;4.90;;;;;;;;;;4944626;28;20054;-68
2022/04/30 03:45:32;;;;;;;11.93;4.93;;;;;;;;;;4993045;28;20066;-66
2022/04/30 03:48:03;;;;;;;12.50;5.32;;;;;;;;;;4986515;28;20069;-66
2022/04/30 03:50:34;;;;;;;13.25;5.10;;;;;;;;;;5008549;28;20406;-66
2022/04/30 03:53:04;;;;;;;11.75;5.10;;;;;;;;;;4973066;28;20054;-65
2022/04/30 03:55:35;;;;;;;11.18;4.80;;;;;;;;;;4956836;28;20498;-65
2022/04/30 03:58:06;;;;;;;11.45;4.82;;;;;;;;;;4992814;28;20058;-65
2022/04/30 04:00:36;;;;;;;9.23;4.45;;;;;;;;;;4992561;28;20058;-66
2022/04/30 04:03:08;;;;;;;11.48;4.45;;;;;;;;;;4957100;28;20435;-65
2022/04/30 04:05:39;;;;;;;10.88;4.50;;;;;;;;;;4973094;28;20057;-66
2022/04/30 04:08:14;;;;;;;9.93;4.75;;;;;;;;;;4972922;28;20515;-65
2022/04/30 04:10:44;;;;;;;10.93;5.03;;;;;;;;;;4972858;28;20163;-65
2022/04/30 04:18:55;;;;;;;10.48;4.28;;;;;;;;;;4953530;29;20530;-66
2022/04/30 04:21:26;;;;;;;12.82;4.80;;;;;;;;;;4969364;28;20054;-65
2022/04/30 04:26:46;;;;;;;12.75;4.65;;;;;;;;;;4955138;28;20050;-66
2022/04/30 04:29:17;;;;;;;10.77;4.30;;;;;;;;;;4955044;28;20055;-65
2022/04/30 04:31:47;;;;;;;9.25;4.40;;;;;;;;;;4971430;28;20074;-65
2022/04/30 04:34:18;;;;;;;8.15;4.22;;;;;;;;;;4940565;28;20054;-66
2022/04/30 04:36:48;;;;;;;8.35;4.32;;;;;;;;;;4972433;28;20062;-66
2022/04/30 04:39:19;;;;;;;12.02;4.70;;;;;;;;;;4972562;28;20066;-66
2022/04/30 04:41:49;;;;;;;9.85;4.15;;;;;;;;;;4939037;29;20059;-65
2022/04/30 04:44:21;;;;;;;10.77;4.10;;;;;;;;;;4937263;29;20070;-68
2022/04/30 04:46:52;;;;;;;10.35;4.55;;;;;;;;;;4985123;28;20411;-65
2022/04/30 04:49:22;;;;;;;8.27;4.82;;;;;;;;;;4953303;28;20522;-66
2022/04/30 04:51:53;;;;;;;11.00;4.40;;;;;;;;;;4939931;28;20050;-65
2022/04/30 04:54:24;;;;;;;11.23;4.55;;;;;;;;;;4991824;28;20063;-65
2022/04/30 04:56:55;;;;;;;13.30;4.68;;;;;;;;;;4991705;28;20046;-66
2022/04/30 04:59:26;;;;;;;9.43;4.38;;;;;;;;;;4991532;28;20053;-65
2022/04/30 05:01:56;;;;;;;9.57;4.50;;;;;;;;;;4991241;28;20058;-67
2022/04/30 05:04:27;;;;;;;8.10;3.72;;;;;;;;;;4988709;28;20712;-65
2022/04/30 05:06:59;;;;;;;9.43;4.53;;;;;;;;;;5030849;28;20149;-65
2022/04/30 05:09:31;;;;;;;10.93;4.43;;;;;;;;;;5030767;28;20045;-66
2022/04/30 05:12:01;;;;;;;9.85;4.63;;;;;;;;;;5014777;28;20049;-66
2022/04/30 05:14:32;;;;;;;14.95;5.43;;;;;;;;;;4999926;28;20057;-66
2022/04/30 05:17:07;;;;;;;9.98;4.85;;;;;;;;;;5050811;28;20067;-66
2022/04/30 05:19:38;;;;;;;11.32;4.75;;;;;;;;;;5050387;28;20061;-66
2022/04/30 05:22:08;;;;;;;8.65;4.65;;;;;;;;;;5030382;28;20049;-65
2022/04/30 05:24:39;;;;;;;10.48;5.07;;;;;;;;;;5006837;28;20049;-65
2022/04/30 05:27:10;;;;;;;13.57;5.18;;;;;;;;;;4991280;28;20518;-65
2022/04/30 05:29:41;;;;;;;14.75;4.97;;;;;;;;;;4991057;28;20418;-65
2022/04/30 05:32:11;;;;;;;11.05;4.60;;;;;;;;;;4991016;28;20051;-65
2022/04/30 05:34:42;;;;;;;9.90;4.53;;;;;;;;;;4990909;28;20058;-66
2022/04/30 05:37:13;;;;;;;10.35;4.68;;;;;;;;;;5006533;28;20410;-65
2022/04/30 05:39:44;;;;;;;11.65;4.85;;;;;;;;;;4974646;28;20518;-65
2022/04/30 05:42:15;;;;;;;10.32;4.70;;;;;;;;;;5007220;28;20077;-65
2022/04/30 05:44:45;;;;;;;10.57;4.72;;;;;;;;;;4990522;28;20065;-65
2022/04/30 05:47:19;;;;;;;9.02;4.72;;;;;;;;;;4974296;28;20062;-65
2022/04/30 05:49:50;;;;;;;9.48;4.45;;;;;;;;;;4974314;28;20050;-65
2022/04/30 05:52:21;;;;;;;10.85;5.10;;;;;;;;;;4990686;28;20068;-66
2022/04/30 05:54:52;;;;;;;7.78;4.50;;;;;;;;;;4990235;28;20054;-65
2022/04/30 05:57:22;;;;;;;10.27;4.57;;;;;;;;;;4990690;28;20533;-65
2022/04/30 05:59:53;;;;;;;11.95;4.68;;;;;;;;;;4990555;28;20449;-65
2022/04/30 06:02:24;;;;;;;10.95;4.43;;;;;;;;;;5000929;28;20064;-65
2022/04/30 06:04:55;;;;;;;12.40;5.15;;;;;;;;;;4986596;28;20507;-66
2022/04/30 06:07:30;;;;;;;11.57;4.88;;;;;;;;;;4970829;28;20057;-65
2022/04/30 06:10:00;;;;;;;10.77;4.68;;;;;;;;;;4955012;28;20426;-65
2022/04/30 06:12:31;;;;;;;8.65;4.72;;;;;;;;;;4970604;28;20498;-65
2022/04/30 06:15:03;;;;;;;12.05;4.53;;;;;;;;;;4931977;29;20052;-65
2022/04/30 06:17:34;;;;;;;9.18;4.40;;;;;;;;;;4916946;29;20052;-65
2022/04/30 06:20:05;;;;;;;8.98;3.88;;;;;;;;;;4932270;29;20127;-65
2022/04/30 06:22:36;;;;;;;8.35;4.47;;;;;;;;;;4932417;29;20063;-65
2022/04/30 06:25:08;;;;;;;8.55;4.40;;;;;;;;;;4950952;28;20055;-65
2022/04/30 06:27:39;;;;;;;9.70;4.70;;;;;;;;;;4919473;29;20121;-64
2022/04/30 06:30:11;;;;;;;10.88;4.63;;;;;;;;;;4951193;28;20059;-65
2022/04/30 06:32:45;;;;;;;10.35;5.05;;;;;;;;;;4951044;29;20051;-65
2022/04/30 06:35:15;;;;;;;10.95;5.53;;;;;;;;;;4951254;28;20419;-66
2022/04/30 06:37:46;;;;;;;7.65;4.10;;;;;;;;;;4932479;28;20052;-66
2022/04/30 06:40:16;;;;;;;9.00;4.63;;;;;;;;;;4932059;29;20056;-65
2022/04/30 06:42:47;;;;;;;9.18;4.80;;;;;;;;;;4943197;28;20415;-65
2022/04/30 06:45:19;;;;;;;10.88;4.65;;;;;;;;;;4950878;28;20059;-64
2022/04/30 06:47:49;;;;;;;9.23;4.65;;;;;;;;;;4941863;28;20498;-64
2022/04/30 06:50:19;;;;;;;11.18;5.03;;;;;;;;;;4946728;28;20070;-65
2022/04/30 06:58:40;;;;;;;11.05;4.88;;;;;;;;;;4993558;28;20062;-65
2022/04/30 07:04:04;;;;;;;9.45;4.97;;;;;;;;;;4935295;29;20408;-65
2022/04/30 07:06:35;;;;;;;9.13;4.45;;;;;;;;;;4954662;29;20043;-65
2022/04/30 07:09:07;;;;;;;12.93;5.45;;;;;;;;;;4954620;29;20066;-66
2022/04/30 07:11:37;;;;;;;12.43;5.28;;;;;;;;;;4935427;29;20047;-65
2022/04/30 07:14:09;;;;;;;11.48;5.75;;;;;;;;;;4935657;29;20389;-65
2022/04/30 07:16:40;;;;;;;11.85;5.30;;;;;;;;;;4973857;28;20047;-65
2022/04/30 07:19:10;;;;;;;10.20;5.05;;;;;;;;;;4958174;28;20054;-64
2022/04/30 07:21:41;;;;;;;10.20;4.95;;;;;;;;;;4974273;28;20066;-65
2022/04/30 07:24:11;;;;;;;8.55;3.97;;;;;;;;;;4973861;28;20426;-66
2022/04/30 07:26:42;;;;;;;9.35;4.50;;;;;;;;;;4926079;28;20062;-67
2022/04/30 07:29:13;;;;;;;11.15;4.80;;;;;;;;;;4957478;28;20066;-65
2022/04/30 07:31:43;;;;;;;9.00;4.57;;;;;;;;;;4957870;28;20070;-66
2022/04/30 07:34:14;;;;;;;11.65;5.55;;;;;;;;;;4973612;28;20515;-66
2022/04/30 07:36:45;;;;;;;10.40;4.43;;;;;;;;;;4957461;28;20054;-65
2022/04/30 07:39:16;;;;;;;11.60;4.90;;;;;;;;;;4986757;28;20396;-68
2022/04/30 07:41:54;;;;;;;13.15;5.20;;;;;;;;;;4972178;28;20548;-65
2022/04/30 07:44:29;;;;;;;10.15;4.50;;;;;;;;;;4961967;28;20047;-65
2022/04/30 07:47:00;;;;;;;10.18;4.85;;;;;;;;;;4953565;29;20043;-68
2022/04/30 07:49:31;;;;;;;8.55;4.53;;;;;;;;;;4993118;28;20534;-65
2022/04/30 07:52:02;;;;;;;12.30;4.38;;;;;;;;;;4992679;28;20054;-65
2022/04/30 07:54:32;;;;;;;9.57;4.65;;;;;;;;;;4992912;28;20054;-65
2022/04/30 07:57:03;;;;;;;13.23;4.53;;;;;;;;;;4977045;28;20069;-65
2022/04/30 07:59:34;;;;;;;10.07;4.65;;;;;;;;;;4975143;28;20046;-67
2022/04/30 08:02:04;;;;;;;10.82;4.97;;;;;;;;;;4992655;28;20054;-66
2022/04/30 08:04:35;;;;;;;11.13;5.15;;;;;;;;;;4992676;28;20063;-66
2022/04/30 08:07:06;;;;;;;8.60;4.68;;;;;;;;;;4992650;28;20565;-65
2022/04/30 08:09:37;;;;;;;13.52;3.95;;;;;;;;;;4992858;28;20058;-66
2022/04/30 08:12:08;;;;;;;11.50;4.82;;;;;;;;;;4995865;28;20046;-65
2022/04/30 08:14:39;;;;;;;10.38;4.53;;;;;;;;;;5011731;28;20064;-65
2022/04/30 08:17:13;;;;;;;9.75;4.82;;;;;;;;;;5012058;28;20457;-65
2022/04/30 08:19:44;;;;;;;10.63;4.68;;;;;;;;;;5011967;28;20050;-65
2022/04/30 08:22:14;;;;;;;9.23;4.90;;;;;;;;;;5014690;28;20049;-67
2022/04/30 08:24:45;;;;;;;9.80;5.05;;;;;;;;;;5042114;28;20064;-66
2022/04/30 08:27:17;;;;;;;11.95;4.80;;;;;;;;;;5035325;28;20049;-67
2022/04/30 08:29:47;;;;;;;8.63;4.88;;;;;;;;;;5051454;28;20080;-65
2022/04/30 08:32:19;;;;;;;11.65;4.80;;;;;;;;;;5051416;28;20056;-65
2022/04/30 08:34:50;;;;;;;11.38;4.53;;;;;;;;;;5035011;28;20511;-65
2022/04/30 08:37:21;;;;;;;8.77;4.65;;;;;;;;;;5011374;28;20045;-67
2022/04/30 08:39:52;;;;;;;11.23;4.72;;;;;;;;;;5011458;28;20061;-65
2022/04/30 08:42:24;;;;;;;11.82;5.20;;;;;;;;;;5011508;28;20049;-65
2022/04/30 08:44:56;;;;;;;16.20;5.95;;;;;;;;;;5011381;28;20042;-66
2022/04/30 08:47:27;;;;;;;22.67;7.53;;;;;;;;;;5011625;28;20413;-66
2022/04/30 08:50:02;;;;;;;26.67;7.68;;;;;;;;;;4976761;28;20058;-65
2022/04/30 08:52:32;;;;;;;22.88;7.32;;;;;;;;;;4941637;28;20055;-65
2022/04/30 08:55:05;;;;;;;29.05;8.40;;;;;;;;;;4968247;28;20043;-66
2022/04/30 08:57:36;;;;;;;24.33;7.78;;;;;;;;;;4968856;28;20416;-66
2022/04/30 09:00:08;;;;;;;26.15;9.00;;;;;;;;;;4980057;28;20066;-65
2022/04/30 09:02:52;;;;;;;23.90;8.70;;;;;;;;;;4991247;28;20173;-65
2022/04/30 09:05:31;;;;;;;28.70;9.50;;;;;;;;;;4952538;28;20058;-67
2022/04/30 09:08:02;;;;;;;22.90;8.85;;;;;;;;;;4940033;28;20062;-65
2022/04/30 09:10:35;;;;;;;23.77;9.52;;;;;;;;;;4971486;28;20066;-65
2022/04/30 09:13:17;;;;;;;27.23;9.40;;;;;;;;;;4971683;28;20061;-66
2022/04/30 09:15:54;;;;;;;32.63;10.23;;;;;;;;;;4988440;28;20050;-66
2022/04/30 09:18:25;;;;;;;28.05;9.57;;;;;;;;;;4991254;28;20254;-66
2022/04/30 09:20:55;;;;;;;27.80;10.43;;;;;;;;;;4991255;28;20065;-65
2022/04/30 09:23:34;;;;;;;28.40;9.85;;;;;;;;;;4971355;28;20478;-65
2022/04/30 09:26:06;;;;;;;25.98;9.70;;;;;;;;;;4971541;28;20055;-65
2022/04/30 09:28:39;;;;;;;24.08;10.07;;;;;;;;;;4937913;29;20435;-66
2022/04/30 09:31:11;;;;;;;28.75;9.25;;;;;;;;;;4932943;29;20054;-66
2022/04/30 09:33:51;;;;;;;26.23;10.00;;;;;;;;;;4914053;29;20057;-65
2022/04/30 09:39:16;;;;;;;26.52;9.85;;;;;;;;;;4897689;29;20061;-65
2022/04/30 09:41:46;;;;;;;30.38;10.68;;;;;;;;;;4932865;29;20075;-65
2022/04/30 09:44:17;;;;;;;39.03;10.40;;;;;;;;;;4920479;29;20066;-65
2022/04/30 09:46:49;;;;;;;31.80;9.60;;;;;;;;;;4935745;29;20043;-65
2022/04/30 09:55:00;;;;;;;23.92;8.60;;;;;;;;;;4932585;29;20055;-65
2022/04/30 09:57:36;;;;;;;23.52;7.95;;;;;;;;;;4932757;29;20052;-65
2022/04/30 10:00:08;;;;;;;23.35;8.18;;;;;;;;;;4934540;29;20099;-65
2022/04/30 10:02:46;;;;;;;16.13;5.60;;;;;;;;;;4951914;29;20062;-65
2022/04/30 10:05:17;;;;;;;14.13;5.00;;;;;;;;;;4951598;28;20047;-64
2022/04/30 10:07:49;;;;;;;16.67;4.97;;;;;;;;;;4939334;28;20062;-65
2022/04/30 10:10:29;;;;;;;16.60;4.97;;;;;;;;;;4951315;28;20051;-65
2022/04/30 10:13:07;;;;;;;14.95;5.75;;;;;;;;;;4932126;29;20043;-64
2022/04/30 10:15:39;;;;;;;15.15;5.88;;;;;;;;;;4900889;29;20059;-64
2022/04/30 10:18:12;;;;;;;16.15;6.35;;;;;;;;;;4932509;29;20554;-65
2022/04/30 10:20:56;;;;;;;18.15;7.10;;;;;;;;;;4932280;29;20059;-64
2022/04/30 10:23:27;;;;;;;18.13;6.88;;;;;;;;;;4912797;29;20060;-64
2022/04/30 10:26:07;;;;;;;16.60;7.22;;;;;;;;;;4932226;29;20063;-65
2022/04/30 10:28:39;;;;;;;16.63;6.72;;;;;;;;;;4900796;29;20047;-64
2022/04/30 10:31:10;;;;;;;17.90;7.55;;;;;;;;;;4921041;29;20071;-65
2022/04/30 10:33:51;;;;;;;16.98;6.93;;;;;;;;;;4966907;28;20066;-65
2022/04/30 10:36:22;;;;;;;22.27;7.53;;;;;;;;;;4970685;28;20070;-65
2022/04/30 10:39:06;;;;;;;18.30;7.22;;;;;;;;;;4970646;28;20062;-64
2022/04/30 10:41:43;;;;;;;17.38;7.55;;;;;;;;;;4970643;28;20061;-65
2022/04/30 10:44:14;;;;;;;19.00;7.88;;;;;;;;;;4903785;29;20116;-65
2022/04/30 10:46:48;;;;;;;19.67;7.93;;;;;;;;;;4951330;28;20055;-65
2022/04/30 10:49:19;;;;;;;20.63;9.05;;;;;;;;;;4989589;28;20126;-65
2022/04/30 10:51:55;;;;;;;24.25;8.98;;;;;;;;;;4993134;28;20049;-64
2022/04/30 10:54:30;;;;;;;17.83;7.95;;;;;;;;;;4993719;28;20522;-64
2022/04/30 10:57:03;;;;;;;21.38;8.98;;;;;;;;;;4970088;28;20197;-64
2022/04/30 10:59:34;;;;;;;24.60;9.20;;;;;;;;;;4950899;28;20051;-64
2022/04/30 11:02:05;;;;;;;29.85;11.02;;;;;;;;;;4936722;28;20054;-64
2022/04/30 11:04:36;;;;;;;28.23;10.60;;;;;;;;;;4970122;28;20070;-65
2022/04/30 11:07:08;;;;;;;24.02;11.23;;;;;;;;;;4970583;28;20055;-64
2022/04/30 11:09:43;;;;;;;25.70;10.55;;;;;;;;;;4970223;28;20055;-65
2022/04/30 11:12:15;;;;;;;25.63;10.35;;;;;;;;;;4950850;28;20190;-64
2022/04/30 11:14:50;;;;;;;24.55;10.30;;;;;;;;;;4950697;28;20070;-64
2022/04/30 11:17:20;;;;;;;24.88;10.20;;;;;;;;;;4967481;28;20066;-66
2022/04/30 11:19:51;;;;;;;24.88;10.88;;;;;;;;;;4970471;28;20059;-67
2022/04/30 11:22:23;;;;;;;31.00;13.63;;;;;;;;;;4970133;28;20407;-65
2022/04/30 11:24:57;;;;;;;27.20;11.63;;;;;;;;;;4970208;28;20059;-66
2022/04/30 11:27:34;;;;;;;21.10;9.63;;;;;;;;;;4937081;28;20051;-66
2022/04/30 11:30:05;;;;;;;27.75;9.90;;;;;;;;;;4930489;29;20436;-66
2022/04/30 11:32:36;;;;;;;16.67;7.28;;;;;;;;;;4951004;29;20063;-68
2022/04/30 11:35:07;;;;;;;15.60;8.25;;;;;;;;;;4953224;28;20054;-66
2022/04/30 11:37:39;;;;;;;9.23;4.32;;;;;;;;;;4934897;29;20428;-65
2022/04/30 11:40:29;;;;;;;23.00;9.20;;;;;;;;;;4935138;29;20064;-65
2022/04/30 11:43:05;;;;;;;22.73;9.38;;;;;;;;;;4912550;29;20515;-65
2022/04/30 11:45:36;;;;;;;19.55;8.60;;;;;;;;;;4913070;29;20064;-64
2022/04/30 11:48:07;;;;;;;17.27;7.25;;;;;;;;;;4915606;29;20052;-65
2022/04/30 11:50:40;;;;;;;13.25;6.45;;;;;;;;;;4931286;29;20059;-65
2022/04/30 11:53:11;;;;;;;13.32;6.50;;;;;;;;;;4918639;29;20060;-65
2022/04/30 11:55:42;;;;;;;13.32;5.97;;;;;;;;;;4934637;29;20047;-66
2022/04/30 11:58:12;;;;;;;14.63;6.70;;;;;;;;;;4950630;29;20531;-65
2022/04/30 12:05:05;;;;;;;11.90;5.82;;;;;;;;;;4951783;29;20048;-67
2022/04/30 12:07:45;;;;;;;10.75;4.78;;;;;;;;;;4953637;28;20066;-67
2022/04/30 12:10:18;;;;;;;27.60;14.15;;;;;;;;;;4953837;28;20070;-68
2022/04/30 12:12:50;;;;;;;31.63;17.90;;;;;;;;;;4963685;28;20054;-67
2022/04/30 12:15:23;;;;;;;19.45;7.55;;;;;;;;;;4982796;28;20062;-67
2022/04/30 12:27:08;;;;;;;41.20;17.45;;;;;;;;;;5008522;28;20065;-65
2022/04/30 12:29:39;;;;;;;19.05;8.55;;;;;;;;;;5051462;28;20220;-65
2022/04/30 12:32:10;;;;;;;17.83;7.85;;;;;;;;;;5029653;28;20057;-65
2022/04/30 12:34:41;;;;;;;17.48;8.23;;;;;;;;;;4995570;28;20061;-65
2022/04/30 12:37:12;;;;;;;20.35;9.75;;;;;;;;;;4994544;28;20069;-66
2022/04/30 12:39:43;;;;;;;20.95;9.13;;;;;;;;;;5010822;28;20061;-65
2022/04/30 12:42:15;;;;;;;23.77;11.98;;;;;;;;;;4996972;28;20065;-65
2022/04/30 12:44:45;;;;;;;25.30;10.85;;;;;;;;;;5050717;28;20045;-65
2022/04/30 12:47:16;;;;;;;26.63;10.85;;;;;;;;;;5017541;28;20049;-65
2022/04/30 12:49:47;;;;;;;15.40;6.25;;;;;;;;;;5050121;28;20060;-66
2022/04/30 12:52:18;;;;;;;20.20;7.97;;;;;;;;;;5038463;28;20058;-66
2022/04/30 12:54:50;;;;;;;24.23;9.95;;;;;;;;;;4991706;28;20101;-65
2022/04/30 12:57:21;;;;;;;22.45;10.80;;;;;;;;;;4940927;28;20046;-66
2022/04/30 12:59:53;;;;;;;21.88;10.02;;;;;;;;;;4955690;28;20448;-66
2022/04/30 13:02:24;;;;;;;47.45;23.30;;;;;;;;;;4971591;28;20115;-66
2022/04/30 13:04:55;;;;;;;13.75;7.03;;;;;;;;;;4971887;28;20054;-65
2022/04/30 13:07:27;;;;;;;23.35;11.45;;;;;;;;;;4971362;28;20610;-66
2022/04/30 13:15:49;;;;;;;18.08;8.98;;;;;;;;;;4913826;29;20052;-65
2022/04/30 13:18:21;;;;;;;21.30;11.57;;;;;;;;;;4882348;29;20556;-65
2022/04/30 13:20:52;;;;;;;17.98;8.75;;;;;;;;;;4912157;29;20445;-67
2022/04/30 13:23:44;;;;;;;15.10;7.78;;;;;;;;;;4913193;29;20540;-64
2022/04/30 13:26:20;;;;;;;16.10;7.85;;;;;;;;;;4881876;29;20057;-65
2022/04/30 13:28:51;;;;;;;14.50;8.45;;;;;;;;;;4884413;29;20057;-64
2022/04/30 13:31:23;;;;;;;15.65;9.10;;;;;;;;;;4880443;29;20075;-64
2022/04/30 13:33:53;;;;;;;14.52;8.52;;;;;;;;;;4914771;28;20056;-65
2022/04/30 13:36:25;;;;;;;18.60;9.05;;;;;;;;;;4948720;28;20051;-64
2022/04/30 13:38:55;;;;;;;17.35;6.85;;;;;;;;;;4951120;28;20047;-65
2022/04/30 13:41:27;;;;;;;13.80;8.18;;;;;;;;;;4930826;29;20056;-64
2022/04/30 13:43:58;;;;;;;17.10;8.00;;;;;;;;;;4908515;29;20205;-66
2022/04/30 13:46:29;;;;;;;12.75;6.93;;;;;;;;;;4922301;29;20086;-64
2022/04/30 13:48:59;;;;;;;14.18;7.10;;;;;;;;;;4887730;29;20052;-65
2022/04/30 13:51:32;;;;;;;14.45;7.40;;;;;;;;;;4876332;29;20057;-65
2022/04/30 13:54:03;;;;;;;22.17;14.73;;;;;;;;;;4876120;29;20056;-64
2022/04/30 13:56:37;;;;;;;13.82;7.63;;;;;;;;;;4882987;29;20136;-66
2022/04/30 13:59:07;;;;;;;12.77;5.70;;;;;;;;;;4880954;29;20513;-64
2022/04/30 14:01:39;;;;;;;11.07;5.93;;;;;;;;;;4852172;29;20069;-64
2022/04/30 14:04:09;;;;;;;9.93;5.13;;;;;;;;;;4848392;29;20049;-64
2022/04/30 14:06:40;;;;;;;8.45;4.57;;;;;;;;;;4887511;29;20049;-64
2022/04/30 14:09:11;;;;;;;14.80;7.03;;;;;;;;;;4925613;29;20051;-64
2022/04/30 14:11:42;;;;;;;9.20;4.38;;;;;;;;;;4915232;29;20059;-65
2022/04/30 14:18:15;;;;;;;12.05;7.30;;;;;;;;;;4907909;29;20087;-66
2022/04/30 14:19:53;;;;;;;7.25;3.92;;;;;;;;;;4909913;29;20052;-63
2022/04/30 14:22:24;;;;;;;5.32;2.83;;;;;;;;;;4911828;29;20056;-63
2022/04/30 14:24:55;;;;;;;9.57;4.10;;;;;;;;;;4896301;29;20061;-63
2022/04/30 14:27:25;;;;;;;6.10;2.78;;;;;;;;;;4927659;29;20058;-65
2022/04/30 14:29:56;;;;;;;6.90;4.18;;;;;;;;;;4899601;29;20195;-62
2022/04/30 14:32:27;;;;;;;8.10;2.60;;;;;;;;;;4913658;29;20059;-62
2022/04/30 14:35:00;;;;;;;5.97;2.33;;;;;;;;;;4927457;29;20063;-63
2022/04/30 14:37:33;;;;;;;5.60;2.25;;;;;;;;;;4915415;29;20045;-63
2022/04/30 14:40:09;;;;;;;4.32;2.38;;;;;;;;;;4875203;29;20453;-64
2022/04/30 14:42:40;;;;;;;7.35;3.10;;;;;;;;;;4926782;29;20129;-65
2022/04/30 14:45:23;;;;;;;4.47;2.58;;;;;;;;;;4895225;29;20562;-63
2022/04/30 14:48:02;;;;;;;4.07;2.25;;;;;;;;;;4933756;28;20062;-66
2022/04/30 14:50:58;;;;;;;5.13;2.20;;;;;;;;;;4939210;29;20054;-63
2022/04/30 14:53:34;;;;;;;6.18;2.50;;;;;;;;;;4949246;29;20069;-62
2022/04/30 14:56:15;;;;;;;4.38;2.40;;;;;;;;;;4948255;29;20427;-63
2022/04/30 14:58:49;;;;;;;3.75;2.08;;;;;;;;;;4933951;29;20132;-65
2022/04/30 15:01:20;;;;;;;6.88;2.45;;;;;;;;;;4949769;28;20059;-63
2022/04/30 15:03:51;;;;;;;7.55;4.43;;;;;;;;;;4949889;28;20058;-63
2022/04/30 15:06:22;;;;;;;3.25;1.95;;;;;;;;;;4933912;29;20412;-64
2022/04/30 15:08:58;;;;;;;5.00;2.17;;;;;;;;;;4880676;29;20517;-64
2022/04/30 15:11:28;;;;;;;6.25;3.83;;;;;;;;;;4915249;29;20186;-64
2022/04/30 15:13:59;;;;;;;5.18;3.17;;;;;;;;;;4915456;29;20048;-62
2022/04/30 15:16:31;;;;;;;4.40;2.00;;;;;;;;;;4896777;29;20064;-64
2022/04/30 15:19:02;;;;;;;5.60;2.33;;;;;;;;;;4911950;29;20057;-63
2022/04/30 15:21:32;;;;;;;3.50;2.10;;;;;;;;;;4950189;29;20050;-63
2022/04/30 15:24:04;;;;;;;3.85;2.00;;;;;;;;;;4933969;29;20060;-63
2022/04/30 15:26:35;;;;;;;4.97;1.88;;;;;;;;;;4903503;29;20067;-63
2022/04/30 15:29:06;;;;;;;5.93;1.73;;;;;;;;;;4887389;29;20083;-63
2022/04/30 15:31:37;;;;;;;4.35;2.15;;;;;;;;;;4934291;29;20107;-62
2022/04/30 15:34:09;;;;;;;2.83;1.70;;;;;;;;;;4938920;29;20062;-62
2022/04/30 15:36:42;;;;;;;6.78;2.38;;;;;;;;;;4953585;29;20565;-62
2022/04/30 15:39:13;;;;;;;3.15;1.75;;;;;;;;;;4937690;29;20055;-63
2022/04/30 15:41:44;;;;;;;4.63;2.10;;;;;;;;;;4953328;29;20055;-62
2022/04/30 15:44:15;;;;;;;3.25;1.60;;;;;;;;;;4952527;28;20554;-64
2022/04/30 15:52:26;;;;;;;3.60;1.67;;;;;;;;;;4993681;28;20666;-62
2022/04/30 15:54:57;;;;;;;3.58;1.55;;;;;;;;;;5015609;28;20050;-62
2022/04/30 15:57:28;;;;;;;4.00;1.63;;;;;;;;;;5002324;28;20050;-63
2022/04/30 15:59:59;;;;;;;3.20;1.30;;;;;;;;;;5007678;28;20073;-63
2022/04/30 16:02:37;;;;;;;3.97;1.45;;;;;;;;;;5000824;28;20924;-63
2022/04/30 16:05:08;;;;;;;4.55;1.98;;;;;;;;;;5047817;28;20045;-65
2022/04/30 16:07:40;;;;;;;2.58;1.30;;;;;;;;;;5028713;28;20773;-62
2022/04/30 16:10:11;;;;;;;3.33;1.63;;;;;;;;;;5006564;28;20854;-63
2022/04/30 16:12:42;;;;;;;4.82;1.85;;;;;;;;;;4989041;28;20050;-63
2022/04/30 16:15:13;;;;;;;;;;;;;;;;;;4989864;28;20054;-61